sensor_id;sensor_type;location;lat;lon;timestamp;temperature;humidity
62363;DHT22;48396;48.426;1.500;2023-02-20T00:00:31;12.00;89.70
62363;DHT22;48396;48.426;1.500;2023-02-20T00:02:57;12.00;89.40
62363;DHT22;48396;48.426;1.500;2023-02-20T00:05:23;12.00;89.40
62363;DHT22;48396;48.426;1.500;2023-02-20T00:07:49;12.00;89.50
62363;DHT22;48396;48.426;1.500;2023-02-20T00:10:16;12.00;89.60
62363;DHT22;48396;48.426;1.500;2023-02-20T00:12:43;12.00;89.40
62363;DHT22;48396;48.426;1.500;2023-02-20T00:15:09;12.00;89.30
62363;DHT22;48396;48.426;1.500;2023-02-20T00:17:38;11.80;89.30
62363;DHT22;48396;48.426;1.500;2023-02-20T00:20:04;11.80;89.50
62363;DHT22;48396;48.426;1.500;2023-02-20T00:22:30;11.80;89.30
62363;DHT22;48396;48.426;1.500;2023-02-20T00:24:56;11.80;89.30
62363;DHT22;48396;48.426;1.500;2023-02-20T00:27:21;11.80;89.40
62363;DHT22;48396;48.426;1.500;2023-02-20T00:29:47;11.80;89.30
62363;DHT22;48396;48.426;1.500;2023-02-20T00:32:15;11.80;89.20
62363;DHT22;48396;48.426;1.500;2023-02-20T00:34:41;11.90;89.10
62363;DHT22;48396;48.426;1.500;2023-02-20T00:37:06;11.90;88.90
62363;DHT22;48396;48.426;1.500;2023-02-20T00:39:33;11.80;89.00
62363;DHT22;48396;48.426;1.500;2023-02-20T00:41:59;11.80;89.10
62363;DHT22;48396;48.426;1.500;2023-02-20T00:44:25;11.70;89.40
62363;DHT22;48396;48.426;1.500;2023-02-20T00:46:50;11.70;89.60
62363;DHT22;48396;48.426;1.500;2023-02-20T00:49:16;11.70;89.60
62363;DHT22;48396;48.426;1.500;2023-02-20T00:51:42;11.60;89.40
62363;DHT22;48396;48.426;1.500;2023-02-20T00:54:08;11.50;89.40
62363;DHT22;48396;48.426;1.500;2023-02-20T00:56:33;11.50;89.20
62363;DHT22;48396;48.426;1.500;2023-02-20T00:58:59;11.60;89.20
62363;DHT22;48396;48.426;1.500;2023-02-20T01:01:25;11.40;89.50
62363;DHT22;48396;48.426;1.500;2023-02-20T01:03:51;11.30;89.80
62363;DHT22;48396;48.426;1.500;2023-02-20T01:06:17;11.20;90.00
62363;DHT22;48396;48.426;1.500;2023-02-20T01:08:42;11.10;90.30
62363;DHT22;48396;48.426;1.500;2023-02-20T01:11:08;11.00;90.40
62363;DHT22;48396;48.426;1.500;2023-02-20T01:13:34;10.80;90.70
62363;DHT22;48396;48.426;1.500;2023-02-20T01:16:00;10.70;91.00
62363;DHT22;48396;48.426;1.500;2023-02-20T01:18:25;10.60;91.00
62363;DHT22;48396;48.426;1.500;2023-02-20T01:20:51;10.60;90.90
62363;DHT22;48396;48.426;1.500;2023-02-20T01:23:17;10.80;90.60
62363;DHT22;48396;48.426;1.500;2023-02-20T01:25:43;11.00;90.30
62363;DHT22;48396;48.426;1.500;2023-02-20T01:28:09;10.90;90.00
62363;DHT22;48396;48.426;1.500;2023-02-20T01:30:34;10.60;90.30
62363;DHT22;48396;48.426;1.500;2023-02-20T01:33:00;10.60;90.50
62363;DHT22;48396;48.426;1.500;2023-02-20T01:35:26;10.50;90.60
62363;DHT22;48396;48.426;1.500;2023-02-20T01:37:59;10.10;91.20
62363;DHT22;48396;48.426;1.500;2023-02-20T01:40:26;10.20;91.30
62363;DHT22;48396;48.426;1.500;2023-02-20T01:42:53;10.40;91.00
62363;DHT22;48396;48.426;1.500;2023-02-20T01:45:36;10.40;90.90
62363;DHT22;48396;48.426;1.500;2023-02-20T01:48:02;10.60;90.60
62363;DHT22;48396;48.426;1.500;2023-02-20T01:50:36;10.80;90.40
62363;DHT22;48396;48.426;1.500;2023-02-20T01:53:09;10.70;90.40
62363;DHT22;48396;48.426;1.500;2023-02-20T01:55:41;10.70;90.50
62363;DHT22;48396;48.426;1.500;2023-02-20T01:58:11;10.80;90.40
62363;DHT22;48396;48.426;1.500;2023-02-20T02:00:39;10.90;90.20
62363;DHT22;48396;48.426;1.500;2023-02-20T02:03:11;10.90;90.20
62363;DHT22;48396;48.426;1.500;2023-02-20T02:05:40;11.10;90.00
62363;DHT22;48396;48.426;1.500;2023-02-20T02:08:10;11.10;89.60
62363;DHT22;48396;48.426;1.500;2023-02-20T02:10:51;11.10;89.40
62363;DHT22;48396;48.426;1.500;2023-02-20T02:13:18;11.10;89.20
62363;DHT22;48396;48.426;1.500;2023-02-20T02:15:44;11.20;89.00
62363;DHT22;48396;48.426;1.500;2023-02-20T02:34:50;10.90;89.40
62363;DHT22;48396;48.426;1.500;2023-02-20T02:43:08;10.50;90.10
62363;DHT22;48396;48.426;1.500;2023-02-20T02:50:47;10.50;89.70
62363;DHT22;48396;48.426;1.500;2023-02-20T02:53:14;10.50;89.60
62363;DHT22;48396;48.426;1.500;2023-02-20T02:55:40;10.30;89.60
62363;DHT22;48396;48.426;1.500;2023-02-20T02:58:06;10.10;89.70
62363;DHT22;48396;48.426;1.500;2023-02-20T03:00:34;9.60;90.60
62363;DHT22;48396;48.426;1.500;2023-02-20T03:03:07;9.40;91.30
62363;DHT22;48396;48.426;1.500;2023-02-20T03:05:41;9.70;91.00
62363;DHT22;48396;48.426;1.500;2023-02-20T03:08:30;9.80;90.70
62363;DHT22;48396;48.426;1.500;2023-02-20T03:11:02;10.20;90.30
62363;DHT22;48396;48.426;1.500;2023-02-20T03:13:39;10.20;90.10
62363;DHT22;48396;48.426;1.500;2023-02-20T03:16:36;10.30;89.90
62363;DHT22;48396;48.426;1.500;2023-02-20T03:19:07;10.30;88.90
62363;DHT22;48396;48.426;1.500;2023-02-20T03:21:40;10.30;88.50
62363;DHT22;48396;48.426;1.500;2023-02-20T03:24:08;10.00;88.80
62363;DHT22;48396;48.426;1.500;2023-02-20T03:26:36;9.50;90.30
62363;DHT22;48396;48.426;1.500;2023-02-20T03:31:40;8.90;91.20
62363;DHT22;48396;48.426;1.500;2023-02-20T03:34:13;9.10;91.40
62363;DHT22;48396;48.426;1.500;2023-02-20T03:37:04;8.90;91.70
62363;DHT22;48396;48.426;1.500;2023-02-20T03:39:52;9.10;91.60
62363;DHT22;48396;48.426;1.500;2023-02-20T03:42:41;9.50;91.10
62363;DHT22;48396;48.426;1.500;2023-02-20T03:45:27;9.90;90.50
62363;DHT22;48396;48.426;1.500;2023-02-20T03:48:00;9.90;90.10
62363;DHT22;48396;48.426;1.500;2023-02-20T03:50:27;9.60;90.60
62363;DHT22;48396;48.426;1.500;2023-02-20T03:52:54;9.60;90.70
62363;DHT22;48396;48.426;1.500;2023-02-20T03:55:20;9.70;90.60
62363;DHT22;48396;48.426;1.500;2023-02-20T03:57:49;9.80;90.30
62363;DHT22;48396;48.426;1.500;2023-02-20T04:00:23;9.80;90.20
62363;DHT22;48396;48.426;1.500;2023-02-20T04:02:52;9.90;90.30
62363;DHT22;48396;48.426;1.500;2023-02-20T04:05:24;9.90;90.20
62363;DHT22;48396;48.426;1.500;2023-02-20T04:10:29;10.00;89.90
62363;DHT22;48396;48.426;1.500;2023-02-20T04:12:56;10.00;89.50
62363;DHT22;48396;48.426;1.500;2023-02-20T04:15:23;9.90;88.80
62363;DHT22;48396;48.426;1.500;2023-02-20T04:17:54;9.80;88.60
62363;DHT22;48396;48.426;1.500;2023-02-20T04:20:22;9.70;89.20
62363;DHT22;48396;48.426;1.500;2023-02-20T04:22:49;9.90;89.20
62363;DHT22;48396;48.426;1.500;2023-02-20T04:27:53;9.80;89.80
62363;DHT22;48396;48.426;1.500;2023-02-20T04:30:19;9.90;89.20
62363;DHT22;48396;48.426;1.500;2023-02-20T04:32:45;9.90;88.80
62363;DHT22;48396;48.426;1.500;2023-02-20T04:35:16;9.90;88.80
62363;DHT22;48396;48.426;1.500;2023-02-20T04:37:42;9.90;88.80
62363;DHT22;48396;48.426;1.500;2023-02-20T04:40:13;9.80;88.90
62363;DHT22;48396;48.426;1.500;2023-02-20T04:42:39;9.90;88.80
62363;DHT22;48396;48.426;1.500;2023-02-20T04:45:05;9.90;88.40
62363;DHT22;48396;48.426;1.500;2023-02-20T04:47:31;9.90;88.60
62363;DHT22;48396;48.426;1.500;2023-02-20T04:49:57;9.80;88.90
62363;DHT22;48396;48.426;1.500;2023-02-20T04:52:23;9.70;89.20
62363;DHT22;48396;48.426;1.500;2023-02-20T04:54:49;9.60;89.70
62363;DHT22;48396;48.426;1.500;2023-02-20T04:57:16;9.50;90.10
62363;DHT22;48396;48.426;1.500;2023-02-20T04:59:41;9.60;90.20
62363;DHT22;48396;48.426;1.500;2023-02-20T05:02:07;9.10;90.30
62363;DHT22;48396;48.426;1.500;2023-02-20T05:04:34;8.90;91.10
62363;DHT22;48396;48.426;1.500;2023-02-20T05:07:00;8.90;91.20
62363;DHT22;48396;48.426;1.500;2023-02-20T05:09:26;8.80;91.50
62363;DHT22;48396;48.426;1.500;2023-02-20T05:11:52;8.30;92.20
62363;DHT22;48396;48.426;1.500;2023-02-20T05:14:19;8.50;92.30
62363;DHT22;48396;48.426;1.500;2023-02-20T05:16:45;8.70;91.80
62363;DHT22;48396;48.426;1.500;2023-02-20T05:19:12;8.90;91.50
62363;DHT22;48396;48.426;1.500;2023-02-20T05:21:41;8.80;91.60
62363;DHT22;48396;48.426;1.500;2023-02-20T05:24:25;8.40;92.00
62363;DHT22;48396;48.426;1.500;2023-02-20T05:26:53;8.30;92.40
62363;DHT22;48396;48.426;1.500;2023-02-20T05:29:19;8.50;92.20
62363;DHT22;48396;48.426;1.500;2023-02-20T05:31:45;8.70;91.80
62363;DHT22;48396;48.426;1.500;2023-02-20T05:34:10;9.00;91.30
62363;DHT22;48396;48.426;1.500;2023-02-20T05:36:36;9.10;91.00
62363;DHT22;48396;48.426;1.500;2023-02-20T05:39:03;9.10;90.80
62363;DHT22;48396;48.426;1.500;2023-02-20T05:41:29;9.10;90.60
62363;DHT22;48396;48.426;1.500;2023-02-20T05:43:54;9.10;90.70
62363;DHT22;48396;48.426;1.500;2023-02-20T05:46:23;9.10;90.60
62363;DHT22;48396;48.426;1.500;2023-02-20T05:48:50;8.80;90.70
62363;DHT22;48396;48.426;1.500;2023-02-20T05:51:23;8.90;90.80
62363;DHT22;48396;48.426;1.500;2023-02-20T05:53:49;9.00;90.70
62363;DHT22;48396;48.426;1.500;2023-02-20T05:56:15;9.10;90.80
62363;DHT22;48396;48.426;1.500;2023-02-20T05:58:42;9.10;90.90
62363;DHT22;48396;48.426;1.500;2023-02-20T06:01:08;9.10;90.90
62363;DHT22;48396;48.426;1.500;2023-02-20T06:03:34;9.10;90.80
62363;DHT22;48396;48.426;1.500;2023-02-20T06:06:00;9.20;90.80
62363;DHT22;48396;48.426;1.500;2023-02-20T06:08:26;9.30;90.90
62363;DHT22;48396;48.426;1.500;2023-02-20T06:10:51;9.30;90.90
62363;DHT22;48396;48.426;1.500;2023-02-20T06:13:17;9.30;91.10
62363;DHT22;48396;48.426;1.500;2023-02-20T06:15:43;9.30;91.20
62363;DHT22;48396;48.426;1.500;2023-02-20T06:18:09;9.30;91.30
62363;DHT22;48396;48.426;1.500;2023-02-20T06:20:34;9.30;91.30
62363;DHT22;48396;48.426;1.500;2023-02-20T06:23:00;9.20;91.40
62363;DHT22;48396;48.426;1.500;2023-02-20T06:25:26;9.20;91.30
62363;DHT22;48396;48.426;1.500;2023-02-20T06:27:51;9.30;91.20
62363;DHT22;48396;48.426;1.500;2023-02-20T06:30:17;9.00;91.30
62363;DHT22;48396;48.426;1.500;2023-02-20T06:32:43;8.90;91.50
62363;DHT22;48396;48.426;1.500;2023-02-20T06:35:09;8.90;91.60
62363;DHT22;48396;48.426;1.500;2023-02-20T06:37:34;8.90;91.70
62363;DHT22;48396;48.426;1.500;2023-02-20T06:40:03;9.00;91.70
62363;DHT22;48396;48.426;1.500;2023-02-20T06:42:29;9.00;91.50
62363;DHT22;48396;48.426;1.500;2023-02-20T06:44:54;9.10;91.40
62363;DHT22;48396;48.426;1.500;2023-02-20T06:47:20;9.10;91.20
62363;DHT22;48396;48.426;1.500;2023-02-20T06:49:46;9.10;91.10
62363;DHT22;48396;48.426;1.500;2023-02-20T06:52:12;9.10;91.00
62363;DHT22;48396;48.426;1.500;2023-02-20T06:54:39;8.90;91.10
62363;DHT22;48396;48.426;1.500;2023-02-20T06:57:06;8.80;91.20
62363;DHT22;48396;48.426;1.500;2023-02-20T06:59:31;8.80;91.20
62363;DHT22;48396;48.426;1.500;2023-02-20T07:02:04;8.70;91.20
62363;DHT22;48396;48.426;1.500;2023-02-20T07:04:30;8.20;92.00
62363;DHT22;48396;48.426;1.500;2023-02-20T07:06:56;7.70;93.10
62363;DHT22;48396;48.426;1.500;2023-02-20T07:09:22;7.50;93.90
62363;DHT22;48396;48.426;1.500;2023-02-20T07:11:51;7.30;94.50
62363;DHT22;48396;48.426;1.500;2023-02-20T07:14:17;7.50;94.60
62363;DHT22;48396;48.426;1.500;2023-02-20T07:16:43;7.70;94.40
62363;DHT22;48396;48.426;1.500;2023-02-20T07:19:08;7.90;94.20
62363;DHT22;48396;48.426;1.500;2023-02-20T07:21:34;8.10;93.80
62363;DHT22;48396;48.426;1.500;2023-02-20T07:24:00;8.10;93.40
62363;DHT22;48396;48.426;1.500;2023-02-20T07:26:27;8.10;93.20
62363;DHT22;48396;48.426;1.500;2023-02-20T07:28:54;7.70;93.60
62363;DHT22;48396;48.426;1.500;2023-02-20T07:31:23;7.50;93.80
62363;DHT22;48396;48.426;1.500;2023-02-20T07:33:49;7.50;93.90
62363;DHT22;48396;48.426;1.500;2023-02-20T07:36:16;7.60;93.50
62363;DHT22;48396;48.426;1.500;2023-02-20T07:38:41;7.60;93.50
62363;DHT22;48396;48.426;1.500;2023-02-20T07:41:07;7.80;93.20
62363;DHT22;48396;48.426;1.500;2023-02-20T07:43:33;7.40;93.50
62363;DHT22;48396;48.426;1.500;2023-02-20T07:45:59;7.30;93.90
62363;DHT22;48396;48.426;1.500;2023-02-20T07:48:25;7.50;93.70
62363;DHT22;48396;48.426;1.500;2023-02-20T07:50:51;7.30;93.50
62363;DHT22;48396;48.426;1.500;2023-02-20T07:53:18;7.10;94.00
62363;DHT22;48396;48.426;1.500;2023-02-20T07:55:44;7.20;94.00
62363;DHT22;48396;48.426;1.500;2023-02-20T07:58:10;7.40;93.50
62363;DHT22;48396;48.426;1.500;2023-02-20T08:00:36;7.50;93.20
62363;DHT22;48396;48.426;1.500;2023-02-20T08:03:02;7.20;93.80
62363;DHT22;48396;48.426;1.500;2023-02-20T08:05:28;7.20;94.00
62363;DHT22;48396;48.426;1.500;2023-02-20T08:07:55;7.20;94.20
62363;DHT22;48396;48.426;1.500;2023-02-20T08:10:23;7.30;94.10
62363;DHT22;48396;48.426;1.500;2023-02-20T08:12:50;7.40;93.90
62363;DHT22;48396;48.426;1.500;2023-02-20T08:15:20;7.60;93.80
62363;DHT22;48396;48.426;1.500;2023-02-20T08:17:46;7.80;93.60
62363;DHT22;48396;48.426;1.500;2023-02-20T08:20:15;8.00;93.30
62363;DHT22;48396;48.426;1.500;2023-02-20T08:22:43;8.10;93.10
62363;DHT22;48396;48.426;1.500;2023-02-20T08:25:09;8.20;92.90
62363;DHT22;48396;48.426;1.500;2023-02-20T08:27:35;8.20;92.70
62363;DHT22;48396;48.426;1.500;2023-02-20T08:30:04;8.40;92.70
62363;DHT22;48396;48.426;1.500;2023-02-20T08:32:30;8.50;92.50
62363;DHT22;48396;48.426;1.500;2023-02-20T08:34:56;8.60;92.50
62363;DHT22;48396;48.426;1.500;2023-02-20T08:37:22;8.60;92.40
62363;DHT22;48396;48.426;1.500;2023-02-20T08:39:48;8.30;93.00
62363;DHT22;48396;48.426;1.500;2023-02-20T08:42:15;7.80;94.30
62363;DHT22;48396;48.426;1.500;2023-02-20T08:44:41;8.00;94.30
62363;DHT22;48396;48.426;1.500;2023-02-20T08:47:07;8.30;94.30
62363;DHT22;48396;48.426;1.500;2023-02-20T08:49:33;8.60;94.00
62363;DHT22;48396;48.426;1.500;2023-02-20T08:51:59;8.60;94.20
62363;DHT22;48396;48.426;1.500;2023-02-20T08:54:25;8.80;93.90
62363;DHT22;48396;48.426;1.500;2023-02-20T08:56:51;8.90;93.80
62363;DHT22;48396;48.426;1.500;2023-02-20T08:59:16;8.70;94.60
62363;DHT22;48396;48.426;1.500;2023-02-20T09:01:42;8.30;95.80
62363;DHT22;48396;48.426;1.500;2023-02-20T09:04:09;8.30;96.10
62363;DHT22;48396;48.426;1.500;2023-02-20T09:06:35;8.20;96.50
62363;DHT22;48396;48.426;1.500;2023-02-20T09:09:01;8.30;96.60
62363;DHT22;48396;48.426;1.500;2023-02-20T09:11:27;8.50;96.70
62363;DHT22;48396;48.426;1.500;2023-02-20T09:13:53;8.70;96.30
62363;DHT22;48396;48.426;1.500;2023-02-20T09:16:21;9.10;95.80
62363;DHT22;48396;48.426;1.500;2023-02-20T09:18:48;9.30;95.60
62363;DHT22;48396;48.426;1.500;2023-02-20T09:21:17;9.50;95.50
62363;DHT22;48396;48.426;1.500;2023-02-20T09:23:43;9.50;95.40
62363;DHT22;48396;48.426;1.500;2023-02-20T09:26:09;9.60;95.30
62363;DHT22;48396;48.426;1.500;2023-02-20T09:28:35;9.60;95.90
62363;DHT22;48396;48.426;1.500;2023-02-20T09:31:01;9.40;96.60
62363;DHT22;48396;48.426;1.500;2023-02-20T09:33:27;9.40;97.20
62363;DHT22;48396;48.426;1.500;2023-02-20T09:35:54;9.20;98.00
62363;DHT22;48396;48.426;1.500;2023-02-20T09:38:21;9.30;98.00
62363;DHT22;48396;48.426;1.500;2023-02-20T09:40:49;9.60;97.60
62363;DHT22;48396;48.426;1.500;2023-02-20T09:43:32;9.70;98.00
62363;DHT22;48396;48.426;1.500;2023-02-20T09:46:08;9.80;97.80
62363;DHT22;48396;48.426;1.500;2023-02-20T09:48:57;10.00;97.40
62363;DHT22;48396;48.426;1.500;2023-02-20T09:51:27;9.90;98.10
62363;DHT22;48396;48.426;1.500;2023-02-20T09:56:29;9.90;98.70
62363;DHT22;48396;48.426;1.500;2023-02-20T10:01:40;10.30;98.30
62363;DHT22;48396;48.426;1.500;2023-02-20T10:04:13;10.30;98.60
62363;DHT22;48396;48.426;1.500;2023-02-20T10:06:39;10.40;98.70
62363;DHT22;48396;48.426;1.500;2023-02-20T10:09:10;10.30;99.10
62363;DHT22;48396;48.426;1.500;2023-02-20T10:14:36;10.60;98.90
62363;DHT22;48396;48.426;1.500;2023-02-20T10:20:00;10.90;98.40
62363;DHT22;48396;48.426;1.500;2023-02-20T10:22:38;11.10;98.10
62363;DHT22;48396;48.426;1.500;2023-02-20T10:25:13;11.10;98.60
62363;DHT22;48396;48.426;1.500;2023-02-20T10:30:50;11.50;98.20
62363;DHT22;48396;48.426;1.500;2023-02-20T10:37:00;11.70;98.10
62363;DHT22;48396;48.426;1.500;2023-02-20T10:39:29;11.60;98.70
62363;DHT22;48396;48.426;1.500;2023-02-20T10:45:01;11.60;99.00
62363;DHT22;48396;48.426;1.500;2023-02-20T10:50:36;11.70;99.10
62363;DHT22;48396;48.426;1.500;2023-02-20T10:58:32;12.10;98.60
62363;DHT22;48396;48.426;1.500;2023-02-20T11:01:10;12.20;98.40
62363;DHT22;48396;48.426;1.500;2023-02-20T11:06:39;12.30;98.40
62363;DHT22;48396;48.426;1.500;2023-02-20T11:09:07;12.40;98.30
62363;DHT22;48396;48.426;1.500;2023-02-20T11:11:43;12.50;98.20
62363;DHT22;48396;48.426;1.500;2023-02-20T11:14:15;12.40;98.30
62363;DHT22;48396;48.426;1.500;2023-02-20T11:17:06;12.40;98.20
62363;DHT22;48396;48.426;1.500;2023-02-20T11:19:37;12.60;98.00
62363;DHT22;48396;48.426;1.500;2023-02-20T11:22:04;12.50;97.90
62363;DHT22;48396;48.426;1.500;2023-02-20T11:24:38;12.40;98.20
62363;DHT22;48396;48.426;1.500;2023-02-20T11:27:08;12.60;98.00
62363;DHT22;48396;48.426;1.500;2023-02-20T11:35:00;12.80;98.10
62363;DHT22;48396;48.426;1.500;2023-02-20T11:37:26;12.90;97.90
62363;DHT22;48396;48.426;1.500;2023-02-20T11:39:53;13.00;97.80
62363;DHT22;48396;48.426;1.500;2023-02-20T11:42:21;13.00;97.70
62363;DHT22;48396;48.426;1.500;2023-02-20T11:45:11;13.10;97.50
62363;DHT22;48396;48.426;1.500;2023-02-20T11:47:38;13.20;97.40
62363;DHT22;48396;48.426;1.500;2023-02-20T11:50:12;13.30;97.20
62363;DHT22;48396;48.426;1.500;2023-02-20T11:52:54;13.30;97.40
62363;DHT22;48396;48.426;1.500;2023-02-20T11:55:23;13.30;97.40
62363;DHT22;48396;48.426;1.500;2023-02-20T11:57:50;13.40;97.30
62363;DHT22;48396;48.426;1.500;2023-02-20T12:00:28;13.40;97.20
62363;DHT22;48396;48.426;1.500;2023-02-20T12:05:35;13.50;97.10
62363;DHT22;48396;48.426;1.500;2023-02-20T12:08:02;13.50;97.20
62363;DHT22;48396;48.426;1.500;2023-02-20T12:10:41;13.40;97.10
62363;DHT22;48396;48.426;1.500;2023-02-20T12:13:12;13.50;97.10
62363;DHT22;48396;48.426;1.500;2023-02-20T12:15:39;13.50;97.30
62363;DHT22;48396;48.426;1.500;2023-02-20T12:18:30;13.60;97.30
62363;DHT22;48396;48.426;1.500;2023-02-20T12:26:36;13.60;97.20
62363;DHT22;48396;48.426;1.500;2023-02-20T12:29:34;13.70;97.20
62363;DHT22;48396;48.426;1.500;2023-02-20T12:32:27;13.80;97.00
62363;DHT22;48396;48.426;1.500;2023-02-20T12:49:25;13.90;96.40
62363;DHT22;48396;48.426;1.500;2023-02-20T13:00:35;14.40;95.80
62363;DHT22;48396;48.426;1.500;2023-02-20T13:03:34;14.40;95.90
62363;DHT22;48396;48.426;1.500;2023-02-20T13:06:01;14.40;96.00
62363;DHT22;48396;48.426;1.500;2023-02-20T13:09:17;14.50;95.90
62363;DHT22;48396;48.426;1.500;2023-02-20T13:11:19;14.50;95.80
62363;DHT22;48396;48.426;1.500;2023-02-20T13:14:04;14.70;95.60
62363;DHT22;48396;48.426;1.500;2023-02-20T13:16:34;14.60;95.50
62363;DHT22;48396;48.426;1.500;2023-02-20T13:21:53;14.90;95.30
62363;DHT22;48396;48.426;1.500;2023-02-20T13:26:51;15.20;94.90
62363;DHT22;48396;48.426;1.500;2023-02-20T13:29:18;15.20;94.80
62363;DHT22;48396;48.426;1.500;2023-02-20T13:31:50;15.30;94.80
62363;DHT22;48396;48.426;1.500;2023-02-20T13:34:25;15.20;94.70
62363;DHT22;48396;48.426;1.500;2023-02-20T13:36:51;15.30;94.60
62363;DHT22;48396;48.426;1.500;2023-02-20T13:39:33;15.20;94.30
62363;DHT22;48396;48.426;1.500;2023-02-20T13:42:01;15.20;94.40
62363;DHT22;48396;48.426;1.500;2023-02-20T13:44:33;15.20;94.20
62363;DHT22;48396;48.426;1.500;2023-02-20T13:57:55;15.80;93.80
62363;DHT22;48396;48.426;1.500;2023-02-20T14:02:57;15.80;93.50
62363;DHT22;48396;48.426;1.500;2023-02-20T14:05:29;16.00;93.40
62363;DHT22;48396;48.426;1.500;2023-02-20T14:07:57;16.20;93.30
62363;DHT22;48396;48.426;1.500;2023-02-20T14:10:28;16.20;92.90
62363;DHT22;48396;48.426;1.500;2023-02-20T14:18:17;16.40;92.70
62363;DHT22;48396;48.426;1.500;2023-02-20T14:20:44;16.30;92.60
62363;DHT22;48396;48.426;1.500;2023-02-20T14:23:27;16.50;92.70
62363;DHT22;48396;48.426;1.500;2023-02-20T14:25:57;16.50;92.40
62363;DHT22;48396;48.426;1.500;2023-02-20T14:28:23;16.50;92.30
62363;DHT22;48396;48.426;1.500;2023-02-20T14:31:29;16.70;92.40
62363;DHT22;48396;48.426;1.500;2023-02-20T14:34:05;16.70;91.90
62363;DHT22;48396;48.426;1.500;2023-02-20T14:42:20;16.80;92.00
62363;DHT22;48396;48.426;1.500;2023-02-20T14:44:55;16.80;91.80
62363;DHT22;48396;48.426;1.500;2023-02-20T14:47:23;16.90;91.70
62363;DHT22;48396;48.426;1.500;2023-02-20T14:49:49;16.80;91.60
62363;DHT22;48396;48.426;1.500;2023-02-20T14:52:22;16.70;91.70
62363;DHT22;48396;48.426;1.500;2023-02-20T14:55:04;16.70;91.60
62363;DHT22;48396;48.426;1.500;2023-02-20T14:57:31;16.80;91.70
62363;DHT22;48396;48.426;1.500;2023-02-20T15:02:47;16.70;91.80
62363;DHT22;48396;48.426;1.500;2023-02-20T15:05:17;16.70;91.90
62363;DHT22;48396;48.426;1.500;2023-02-20T15:07:45;16.90;91.40
62363;DHT22;48396;48.426;1.500;2023-02-20T15:10:53;16.80;91.40
62363;DHT22;48396;48.426;1.500;2023-02-20T15:13:22;17.10;91.20
62363;DHT22;48396;48.426;1.500;2023-02-20T15:15:53;17.10;91.00
62363;DHT22;48396;48.426;1.500;2023-02-20T15:18:42;17.20;91.00
62363;DHT22;48396;48.426;1.500;2023-02-20T15:21:10;17.30;90.60
62363;DHT22;48396;48.426;1.500;2023-02-20T15:23:39;17.40;90.60
62363;DHT22;48396;48.426;1.500;2023-02-20T15:26:29;17.50;90.60
62363;DHT22;48396;48.426;1.500;2023-02-20T15:29:26;17.60;90.40
62363;DHT22;48396;48.426;1.500;2023-02-20T15:32:03;17.60;90.20
62363;DHT22;48396;48.426;1.500;2023-02-20T15:34:36;17.40;90.40
62363;DHT22;48396;48.426;1.500;2023-02-20T15:37:23;17.40;90.00
62363;DHT22;48396;48.426;1.500;2023-02-20T15:39:52;17.10;90.20
62363;DHT22;48396;48.426;1.500;2023-02-20T15:42:20;17.20;90.50
62363;DHT22;48396;48.426;1.500;2023-02-20T15:44:47;17.60;90.20
62363;DHT22;48396;48.426;1.500;2023-02-20T15:47:14;17.70;89.90
62363;DHT22;48396;48.426;1.500;2023-02-20T15:49:41;17.90;89.40
62363;DHT22;48396;48.426;1.500;2023-02-20T15:52:15;17.90;88.90
62363;DHT22;48396;48.426;1.500;2023-02-20T15:54:46;18.00;88.70
62363;DHT22;48396;48.426;1.500;2023-02-20T15:57:16;18.10;88.60
62363;DHT22;48396;48.426;1.500;2023-02-20T15:59:44;18.00;86.90
62363;DHT22;48396;48.426;1.500;2023-02-20T16:02:18;17.60;87.90
62363;DHT22;48396;48.426;1.500;2023-02-20T16:04:49;17.40;89.10
62363;DHT22;48396;48.426;1.500;2023-02-20T16:07:16;17.50;90.00
62363;DHT22;48396;48.426;1.500;2023-02-20T16:09:43;17.70;89.50
62363;DHT22;48396;48.426;1.500;2023-02-20T16:12:18;17.80;89.10
62363;DHT22;48396;48.426;1.500;2023-02-20T16:14:45;17.90;88.40
62363;DHT22;48396;48.426;1.500;2023-02-20T16:17:19;17.90;88.60
62363;DHT22;48396;48.426;1.500;2023-02-20T16:19:46;17.90;88.20
62363;DHT22;48396;48.426;1.500;2023-02-20T16:22:12;17.80;88.20
62363;DHT22;48396;48.426;1.500;2023-02-20T16:24:38;17.80;88.40
62363;DHT22;48396;48.426;1.500;2023-02-20T16:27:05;17.70;88.10
62363;DHT22;48396;48.426;1.500;2023-02-20T16:29:32;17.50;88.20
62363;DHT22;48396;48.426;1.500;2023-02-20T16:34:28;17.70;89.10
62363;DHT22;48396;48.426;1.500;2023-02-20T16:36:56;17.70;88.30
62363;DHT22;48396;48.426;1.500;2023-02-20T16:39:22;17.70;88.10
62363;DHT22;48396;48.426;1.500;2023-02-20T16:41:47;17.70;87.70
62363;DHT22;48396;48.426;1.500;2023-02-20T16:44:20;17.60;87.50
62363;DHT22;48396;48.426;1.500;2023-02-20T16:46:47;17.60;87.60
62363;DHT22;48396;48.426;1.500;2023-02-20T16:49:13;17.50;88.00
62363;DHT22;48396;48.426;1.500;2023-02-20T16:51:43;17.60;87.90
62363;DHT22;48396;48.426;1.500;2023-02-20T16:54:14;17.60;87.60
62363;DHT22;48396;48.426;1.500;2023-02-20T16:56:40;17.30;88.20
62363;DHT22;48396;48.426;1.500;2023-02-20T16:59:06;16.80;88.70
62363;DHT22;48396;48.426;1.500;2023-02-20T17:01:34;16.60;89.70
62363;DHT22;48396;48.426;1.500;2023-02-20T17:04:00;16.60;89.50
62363;DHT22;48396;48.426;1.500;2023-02-20T17:06:26;16.50;89.60
62363;DHT22;48396;48.426;1.500;2023-02-20T17:08:55;16.50;89.60
62363;DHT22;48396;48.426;1.500;2023-02-20T17:11:21;16.50;89.50
62363;DHT22;48396;48.426;1.500;2023-02-20T17:13:47;16.50;89.50
62363;DHT22;48396;48.426;1.500;2023-02-20T17:16:13;16.50;89.30
62363;DHT22;48396;48.426;1.500;2023-02-20T17:18:38;16.50;89.10
62363;DHT22;48396;48.426;1.500;2023-02-20T17:21:04;16.50;89.00
62363;DHT22;48396;48.426;1.500;2023-02-20T17:23:31;16.50;88.90
62363;DHT22;48396;48.426;1.500;2023-02-20T17:25:56;16.30;88.90
62363;DHT22;48396;48.426;1.500;2023-02-20T17:28:22;16.20;89.10
62363;DHT22;48396;48.426;1.500;2023-02-20T17:30:48;16.20;89.10
62363;DHT22;48396;48.426;1.500;2023-02-20T17:33:19;16.00;89.30
62363;DHT22;48396;48.426;1.500;2023-02-20T17:35:45;15.90;89.80
62363;DHT22;48396;48.426;1.500;2023-02-20T17:38:11;15.90;89.70
62363;DHT22;48396;48.426;1.500;2023-02-20T17:40:36;15.80;89.70
62363;DHT22;48396;48.426;1.500;2023-02-20T17:43:03;15.60;90.10
62363;DHT22;48396;48.426;1.500;2023-02-20T17:45:29;15.70;90.10
62363;DHT22;48396;48.426;1.500;2023-02-20T17:47:55;15.50;90.00
62363;DHT22;48396;48.426;1.500;2023-02-20T17:50:21;15.40;90.10
62363;DHT22;48396;48.426;1.500;2023-02-20T17:52:47;15.50;90.20
62363;DHT22;48396;48.426;1.500;2023-02-20T17:55:23;15.10;90.40
62363;DHT22;48396;48.426;1.500;2023-02-20T17:57:49;15.10;90.60
62363;DHT22;48396;48.426;1.500;2023-02-20T18:00:16;15.20;90.50
62363;DHT22;48396;48.426;1.500;2023-02-20T18:02:42;15.30;90.40
62363;DHT22;48396;48.426;1.500;2023-02-20T18:05:08;15.30;90.30
62363;DHT22;48396;48.426;1.500;2023-02-20T18:07:33;15.40;90.30
62363;DHT22;48396;48.426;1.500;2023-02-20T18:09:59;15.40;90.20